This is the latest recevied weather packets stored in our database for station/object KD2ZLA. If no packets are shown the sender has not sent any weather packets the latest 1 day(s).
| Time | Temp. | Humidity | Pressure | Rain* | Wind** | Luminosity | Snow |
|---|---|---|---|---|---|---|---|
| 1778000810 | 17.78° C | 74% | 1002.1 hPa | 0.51 mm | 6.71 m/s, 242° | 136 W/m² | - |
| 1778000506 | 18.89° C | 66% | 1001.8 hPa | 0 mm | 4.92 m/s, 243° | 55 W/m² | - |
| 1778000206 | 20° C | 60% | 1001.5 hPa | 0 mm | 1.79 m/s, 264° | 35 W/m² | - |
| 1777999903 | 20.56° C | 57% | 1001.4 hPa | 0 mm | 6.71 m/s, 289° | 59 W/m² | - |
| 1777999598 | 20.56° C | 58% | 1001.3 hPa | 0 mm | 3.13 m/s, 282° | 133 W/m² | - |
| 1777999296 | 20° C | 58% | 1001.3 hPa | 0 mm | 1.34 m/s, 339° | 74 W/m² | - |
| 1777998994 | 20.56° C | 58% | 1001.5 hPa | 0 mm | 2.24 m/s, 268° | 71 W/m² | - |
| 1777998692 | 20.56° C | 58% | 1001.3 hPa | 0 mm | 3.13 m/s, 296° | 117 W/m² | - |
| 1777998389 | 20° C | 57% | 1001.5 hPa | 0 mm | 4.02 m/s, 257° | 69 W/m² | - |
| 1777998086 | 20° C | 58% | 1001.4 hPa | 0 mm | 4.47 m/s, 280° | 59 W/m² | - |
| 1777997783 | 20.56° C | 57% | 1001.5 hPa | 0 mm | 3.13 m/s, 297° | 54 W/m² | - |
| 1777997480 | 20.56° C | 57% | 1001.5 hPa | 0 mm | 4.47 m/s, 315° | 51 W/m² | - |
| 1777997178 | 20.56° C | 56% | 1001.5 hPa | 0 mm | 4.47 m/s, 251° | 84 W/m² | - |
| 1777996875 | 20.56° C | 57% | 1001.4 hPa | 0 mm | 1.34 m/s, 308° | 257 W/m² | - |
| 1777996571 | 20.56° C | 56% | 1001.5 hPa | 0 mm | 6.71 m/s, 233° | 274 W/m² | - |
| 1777996268 | 21.11° C | 54% | 1001.4 hPa | 0 mm | 8.94 m/s, 280° | 209 W/m² | - |
| 1777995964 | 21.11° C | 54% | 1001.3 hPa | 0 mm | 1.79 m/s, 269° | 178 W/m² | - |
| 1777995660 | 21.67° C | 53% | 1001.5 hPa | 0 mm | 4.02 m/s, 277° | 251 W/m² | - |
| 1777995357 | 21.67° C | 53% | 1001.3 hPa | 0 mm | 5.81 m/s, 258° | 288 W/m² | - |
| 1777995055 | 21.67° C | 53% | 1001.1 hPa | 0 mm | 4.47 m/s, 252° | 394 W/m² | - |
| 1777994751 | 21.67° C | 53% | 1001.2 hPa | 0 mm | 4.47 m/s, 299° | 369 W/m² | - |
| 1777994447 | 21.67° C | 54% | 1000.9 hPa | 0 mm | 1.79 m/s, 298° | 303 W/m² | - |
| 1777994142 | 21.67° C | 54% | 1001.1 hPa | 0 mm | 2.68 m/s, 289° | 309 W/m² | - |
| 1777993840 | 21.67° C | 53% | 1000.8 hPa | 0 mm | 4.02 m/s, 261° | 281 W/m² | - |
| 1777993536 | 21.67° C | 53% | 1000.8 hPa | 0 mm | 6.71 m/s, 277° | 262 W/m² | - |
* Rain latest hour (hover to see other rain measurements)
** Current wind speed in m/s (hover to see current wind gust speed)